Terminal Aerodrome Forecast
Issued by NWS

Home | Current Version | Previous Version | Text Only | Print | Product List | Glossary On
Versions: 1 2 3 4 5 6 7 8 9 10 11 12 13
000
FTUS43 KMQT 221127 AAA
TAFIWD
TAF AMD
KIWD 221127Z 2211/2312 23010KT P6SM -SHSN BKN019
     FM221300 24006KT P6SM BKN040
     FM230000 20008KT P6SM -SHSN OVC040
     FM230200 21008KT P6SM -SHSN BKN030
     FM230400 21008KT P6SM BKN040
     FM230800 23007KT P6SM SCT045=

USA.gov is the U.S. government's official web portal to all federal, state and local government web resources and services.